< Cyclone 200507 2005 Season Cyclone 200509 >
Cyclone 200508 (WILLY)
General InformationTrack Information on Google MapsDetailed Wind InformationList of All Images || ResourceGoogle EarthGE AnimationAtom FeedGeoJSON
Detalied Best Track (Time Zone = UTC)
Year Month Day Hour Lat. Long. Pressure (hPa) Wind (kt) Class Image Chart
2005 3 8 06 -11.7 120.2 1008 20 2 Image --
2005 3 8 12 -12.0 120.1 1006 20 2 Image --
2005 3 8 18 -12.3 119.9 1005 20 2 Image --
2005 3 9 00 -12.6 119.7 1002 25 2 Image --
2005 3 9 06 -13.0 119.2 1000 30 2 Image --
2005 3 9 12 -13.4 118.6 998 30 2 Image --
2005 3 9 18 -13.8 117.7 995 40 3 Image --
2005 3 10 00 -14.0 116.7 992 45 3 Image --
2005 3 10 06 -14.4 115.9 985 50 4 Image --
2005 3 10 12 -14.9 115.3 980 55 4 Image --
2005 3 10 18 -15.5 114.5 970 65 5 Image --
2005 3 11 00 -16.0 113.6 965 70 5 Image --
2005 3 11 06 -16.4 112.7 960 70 5 Image --
2005 3 11 12 -17.2 112.1 960 75 5 Image --
2005 3 11 18 -17.8 111.5 960 75 5 Image --
2005 3 12 00 -18.5 110.9 960 75 5 Image --
2005 3 12 06 -19.3 110.4 960 75 5 Image --
2005 3 12 12 -20.0 110.0 960 75 5 Image --
2005 3 12 18 -20.5 109.3 965 75 5 Image --
2005 3 13 00 -20.8 109.0 970 70 5 Image --
2005 3 13 06 -21.1 108.6 975 60 4 Image --
2005 3 13 12 -21.2 108.1 982 50 4 Image --
2005 3 13 18 -21.3 107.6 990 40 3 Image --
2005 3 14 00 -21.1 107.2 995 30 2 Image --
2005 3 14 06 -21.2 106.6 998 25 2 Image --
2005 3 14 12 -21.0 106.0 1000 25 2 Image --
< Cyclone 200507 2005 Season Cyclone 200509 >

Help